Terminal Aerodrome Forecast
Issued by NWS

Home | Current Version | Previous Version | Text Only | Print | Product List | Glossary On
Versions: 1 2 3 4 5 6 7 8 9 10 11 12 13
000
FTUS41 KRNK 181721
TAFLWB
TAF
KLWB 181721Z 1818/1918 VRB03KT P6SM BKN200
     FM190200 07005KT P6SM BKN040 OVC100
     FM191000 05006KT P6SM OVC035=

USA.gov is the U.S. government's official web portal to all federal, state and local government web resources and services.